Time;durP1;ratioP1;P1;durP2;ratioP2;P2;SDS_P1;SDS_P2;PMS_P1;PMS_P2;Temp;Humidity;BMP_temperature;BMP_pressure;BME280_temperature;BME280_humidity;BME280_pressure;Samples;Min_cycle;Max_cycle;Signal;HPM_P1;HPM_P2
2023/01/24 00:01:42;;;;;;;15.02;3.58;;;;;;;;;;5056514;28;20028;-30
2023/01/24 00:04:08;;;;;;;12.68;3.17;;;;;;;;;;5056387;28;20056;-30
2023/01/24 00:06:35;;;;;;;9.50;3.40;;;;;;;;;;5056518;28;20021;-31
2023/01/24 00:09:01;;;;;;;7.05;2.70;;;;;;;;;;5056463;28;20028;-31
2023/01/24 00:11:27;;;;;;;9.75;4.63;;;;;;;;;;5056416;28;20032;-30
2023/01/24 00:13:53;;;;;;;5.32;3.63;;;;;;;;;;5056513;28;20055;-30
2023/01/24 00:16:20;;;;;;;8.20;3.30;;;;;;;;;;5056578;28;20053;-31
2023/01/24 00:18:47;;;;;;;11.02;3.10;;;;;;;;;;5056276;28;20029;-31
2023/01/24 00:21:23;;;;;;;17.42;3.75;;;;;;;;;;5056476;28;20419;-30
2023/01/24 00:23:51;;;;;;;10.25;3.20;;;;;;;;;;5056419;28;20368;-31
2023/01/24 00:26:18;;;;;;;6.50;2.92;;;;;;;;;;5056393;28;20029;-31
2023/01/24 00:28:44;;;;;;;6.00;2.90;;;;;;;;;;5056079;28;20028;-30
2023/01/24 00:31:11;;;;;;;6.38;3.00;;;;;;;;;;5056071;28;20052;-32
2023/01/24 00:33:37;;;;;;;5.97;3.38;;;;;;;;;;5055844;28;20458;-31
2023/01/24 00:36:03;;;;;;;5.60;3.20;;;;;;;;;;5056229;28;20020;-31
2023/01/24 00:38:31;;;;;;;10.73;3.13;;;;;;;;;;5055865;28;20040;-30
2023/01/24 00:40:57;;;;;;;10.90;3.88;;;;;;;;;;5056143;28;20025;-31
2023/01/24 00:43:23;;;;;;;11.15;4.45;;;;;;;;;;5055450;28;20032;-31
2023/01/24 00:45:50;;;;;;;9.68;3.65;;;;;;;;;;5055713;28;20036;-30
2023/01/24 00:48:16;;;;;;;8.32;4.63;;;;;;;;;;5055752;28;20363;-30
2023/01/24 00:50:42;;;;;;;6.28;2.80;;;;;;;;;;5055709;28;20033;-30
2023/01/24 00:53:08;;;;;;;6.07;3.72;;;;;;;;;;5056016;28;20025;-31
2023/01/24 00:55:35;;;;;;;9.93;3.17;;;;;;;;;;5055856;28;20359;-31
2023/01/24 00:58:01;;;;;;;6.07;3.83;;;;;;;;;;5055575;28;20025;-30
2023/01/24 01:00:27;;;;;;;9.15;3.65;;;;;;;;;;5055495;28;20051;-31
2023/01/24 01:02:53;;;;;;;4.95;3.05;;;;;;;;;;5055206;28;20045;-31
2023/01/24 01:05:20;;;;;;;9.02;3.28;;;;;;;;;;5055409;28;20101;-31
2023/01/24 01:07:46;;;;;;;7.45;3.65;;;;;;;;;;5056193;28;20409;-30
2023/01/24 01:10:12;;;;;;;8.07;3.58;;;;;;;;;;5055298;28;20053;-31
2023/01/24 01:12:38;;;;;;;10.35;4.00;;;;;;;;;;5055156;28;20032;-31
2023/01/24 01:15:05;;;;;;;8.80;3.22;;;;;;;;;;5055240;28;20086;-31
2023/01/24 01:17:31;;;;;;;10.90;3.35;;;;;;;;;;5055411;28;20029;-30
2023/01/24 01:19:58;;;;;;;4.53;2.88;;;;;;;;;;5055441;28;20046;-31
2023/01/24 01:22:25;;;;;;;6.47;2.50;;;;;;;;;;5054970;28;20483;-31
2023/01/24 01:24:51;;;;;;;13.07;3.00;;;;;;;;;;5055039;28;20038;-31
2023/01/24 01:27:17;;;;;;;7.15;3.17;;;;;;;;;;5055822;28;20040;-30
2023/01/24 01:29:43;;;;;;;7.65;2.92;;;;;;;;;;5055270;28;20029;-30
2023/01/24 01:32:09;;;;;;;9.32;2.90;;;;;;;;;;5054690;28;20033;-30
2023/01/24 01:34:36;;;;;;;6.60;2.83;;;;;;;;;;5055174;28;20032;-31
2023/01/24 01:37:02;;;;;;;5.18;2.92;;;;;;;;;;5054781;28;20028;-31
2023/01/24 01:39:28;;;;;;;5.45;2.63;;;;;;;;;;5054824;28;20100;-31
2023/01/24 01:41:55;;;;;;;6.90;3.03;;;;;;;;;;5054978;28;20082;-31
2023/01/24 01:44:38;;;;;;;8.43;2.80;;;;;;;;;;5054762;28;20372;-30
2023/01/24 01:47:25;;;;;;;5.13;3.00;;;;;;;;;;5055064;28;20348;-31
2023/01/24 01:50:14;;;;;;;5.65;3.58;;;;;;;;;;5054623;28;20029;-31
2023/01/24 01:52:41;;;;;;;10.32;3.17;;;;;;;;;;5044285;28;20083;-31
2023/01/24 01:55:15;;;;;;;10.48;3.60;;;;;;;;;;5054864;28;20357;-30
2023/01/24 01:57:42;;;;;;;6.75;3.15;;;;;;;;;;5054600;28;20090;-31
2023/01/24 02:00:10;;;;;;;7.47;4.10;;;;;;;;;;5054581;28;20048;-31
2023/01/24 02:02:38;;;;;;;10.80;3.10;;;;;;;;;;5054305;28;20414;-30
2023/01/24 02:05:05;;;;;;;6.88;2.92;;;;;;;;;;5054813;28;20027;-30
2023/01/24 02:07:50;;;;;;;12.55;3.83;;;;;;;;;;5054722;28;20105;-30
2023/01/24 02:10:18;;;;;;;10.48;2.83;;;;;;;;;;5054735;28;20025;-30
2023/01/24 02:12:47;;;;;;;10.63;3.63;;;;;;;;;;5054294;28;20035;-31
2023/01/24 02:18:04;;;;;;;7.57;2.95;;;;;;;;;;5054461;28;20100;-31
2023/01/24 02:20:33;;;;;;;7.97;3.30;;;;;;;;;;5054643;28;20021;-31
2023/01/24 02:23:18;;;;;;;8.65;2.88;;;;;;;;;;5054257;28;20029;-30
2023/01/24 02:25:47;;;;;;;3.42;2.35;;;;;;;;;;5054615;28;20029;-30
2023/01/24 02:28:13;;;;;;;5.43;3.13;;;;;;;;;;5054226;28;20040;-30
2023/01/24 02:30:39;;;;;;;9.05;3.22;;;;;;;;;;5054548;28;20032;-30
2023/01/24 02:33:19;;;;;;;6.32;3.28;;;;;;;;;;5054659;28;20044;-31
2023/01/24 02:35:46;;;;;;;9.00;3.50;;;;;;;;;;5054240;28;20018;-30
2023/01/24 02:38:20;;;;;;;8.38;3.20;;;;;;;;;;5054495;28;20025;-32
2023/01/24 02:40:46;;;;;;;5.82;3.13;;;;;;;;;;5054241;28;20024;-30
2023/01/24 02:43:14;;;;;;;7.10;3.03;;;;;;;;;;5054319;28;20036;-31
2023/01/24 02:45:40;;;;;;;4.60;2.55;;;;;;;;;;5054127;28;20460;-31
2023/01/24 02:48:06;;;;;;;11.10;3.80;;;;;;;;;;5054110;28;20158;-31
2023/01/24 02:53:29;;;;;;;5.97;2.72;;;;;;;;;;5054005;28;20048;-29
2023/01/24 02:53:31;;;;;;;4.35;3.00;;;;;;;;;;5053876;28;20037;-30
2023/01/24 02:58:47;;;;;;;4.38;2.78;;;;;;;;;;5054637;28;20036;-31
2023/01/24 03:01:16;;;;;;;5.95;2.60;;;;;;;;;;5054555;28;20025;-30
2023/01/24 03:03:46;;;;;;;4.07;2.38;;;;;;;;;;5053778;28;20444;-30
2023/01/24 03:06:13;;;;;;;8.68;2.90;;;;;;;;;;5054195;28;20032;-30
2023/01/24 03:08:40;;;;;;;5.85;2.60;;;;;;;;;;5057284;28;20028;-31
2023/01/24 03:11:07;;;;;;;5.55;2.58;;;;;;;;;;5058130;28;20444;-31
2023/01/24 03:35:33;;;;;;;3.08;2.20;;;;;;;;;;5057190;28;20036;-31
2023/01/24 03:40:44;;;;;;;5.28;3.10;;;;;;;;;;5057395;28;20036;-30
2023/01/24 03:43:11;;;;;;;3.92;2.47;;;;;;;;;;5056871;28;20049;-30
2023/01/24 03:45:38;;;;;;;5.55;2.83;;;;;;;;;;5056975;28;20367;-32
2023/01/24 03:48:14;;;;;;;4.15;2.83;;;;;;;;;;5056857;28;20037;-31
2023/01/24 03:53:30;;;;;;;3.78;3.15;;;;;;;;;;5056707;28;20098;-31
2023/01/24 03:55:57;;;;;;;4.43;2.90;;;;;;;;;;5056750;28;20100;-30
2023/01/24 03:58:24;;;;;;;3.53;3.20;;;;;;;;;;5056704;28;20065;-31
2023/01/24 04:00:51;;;;;;;5.75;3.85;;;;;;;;;;5056910;28;20414;-30
2023/01/24 04:03:18;;;;;;;6.63;2.97;;;;;;;;;;5038795;28;20053;-30
2023/01/24 04:05:44;;;;;;;6.15;3.03;;;;;;;;;;5056811;28;20055;-30
2023/01/24 04:08:10;;;;;;;4.78;2.65;;;;;;;;;;5056793;28;20044;-30
2023/01/24 04:10:36;;;;;;;4.30;2.97;;;;;;;;;;5057013;28;20021;-30
2023/01/24 04:13:03;;;;;;;4.15;2.83;;;;;;;;;;5056503;28;20171;-30
2023/01/24 04:15:31;;;;;;;6.20;3.10;;;;;;;;;;5056384;28;20025;-31
2023/01/24 04:18:01;;;;;;;4.47;2.75;;;;;;;;;;5055913;28;20074;-30
2023/01/24 04:20:29;;;;;;;4.45;2.55;;;;;;;;;;5056094;28;20039;-31
2023/01/24 04:22:55;;;;;;;4.13;2.90;;;;;;;;;;5056410;28;20029;-31
2023/01/24 04:25:22;;;;;;;4.10;2.63;;;;;;;;;;5056195;28;20152;-31
2023/01/24 04:27:48;;;;;;;8.45;3.50;;;;;;;;;;5056727;28;20021;-30
2023/01/24 04:30:16;;;;;;;4.05;2.83;;;;;;;;;;5056355;28;20371;-31
2023/01/24 04:32:42;;;;;;;4.82;2.85;;;;;;;;;;5055886;28;20037;-31
2023/01/24 04:35:09;;;;;;;6.38;3.10;;;;;;;;;;5056033;28;20468;-31
2023/01/24 04:37:36;;;;;;;5.45;3.25;;;;;;;;;;5056444;28;20021;-31
2023/01/24 04:40:02;;;;;;;3.08;2.78;;;;;;;;;;5056111;28;20050;-31
2023/01/24 04:42:28;;;;;;;4.32;2.65;;;;;;;;;;5038216;28;20452;-32
2023/01/24 04:44:55;;;;;;;3.35;3.05;;;;;;;;;;5056049;28;20096;-31
2023/01/24 04:47:21;;;;;;;4.28;2.58;;;;;;;;;;5055950;28;20029;-30
2023/01/24 04:49:47;;;;;;;3.10;2.60;;;;;;;;;;5055702;28;20071;-30
2023/01/24 04:52:14;;;;;;;5.35;2.83;;;;;;;;;;5055704;28;20167;-31
2023/01/24 04:54:40;;;;;;;6.68;2.55;;;;;;;;;;5055515;28;20036;-31
2023/01/24 04:57:07;;;;;;;5.78;3.03;;;;;;;;;;5056016;28;20104;-31
2023/01/24 04:59:33;;;;;;;3.38;2.70;;;;;;;;;;5055671;28;20040;-31
2023/01/24 05:02:00;;;;;;;6.28;3.92;;;;;;;;;;5055597;28;20017;-30
2023/01/24 05:04:26;;;;;;;3.80;3.42;;;;;;;;;;5055138;28;20087;-31
2023/01/24 05:06:52;;;;;;;6.80;2.60;;;;;;;;;;5055271;28;20391;-32
2023/01/24 05:09:18;;;;;;;7.03;2.95;;;;;;;;;;5055215;28;20032;-31
2023/01/24 05:11:44;;;;;;;7.40;2.83;;;;;;;;;;5055986;28;20428;-31
2023/01/24 05:14:11;;;;;;;5.78;2.97;;;;;;;;;;5055125;28;20056;-32
2023/01/24 05:16:37;;;;;;;6.47;3.20;;;;;;;;;;5055096;28;20033;-32
2023/01/24 05:19:04;;;;;;;5.65;2.67;;;;;;;;;;5055051;28;20510;-30
2023/01/24 05:21:30;;;;;;;5.40;3.40;;;;;;;;;;5055224;28;20082;-31
2023/01/24 05:23:57;;;;;;;11.70;3.33;;;;;;;;;;5054892;28;20037;-32
2023/01/24 05:26:25;;;;;;;4.10;2.67;;;;;;;;;;5054847;28;20067;-31
2023/01/24 05:28:51;;;;;;;7.60;3.05;;;;;;;;;;5054857;28;20059;-31
2023/01/24 05:31:17;;;;;;;13.18;3.70;;;;;;;;;;5054905;28;20035;-30
2023/01/24 05:33:44;;;;;;;13.35;3.67;;;;;;;;;;5054695;28;20171;-31
2023/01/24 05:36:15;;;;;;;13.65;3.97;;;;;;;;;;5055005;28;20029;-32
2023/01/24 05:38:41;;;;;;;6.93;3.45;;;;;;;;;;5054693;28;20110;-31
2023/01/24 05:41:09;;;;;;;6.13;3.38;;;;;;;;;;5054474;28;20108;-31
2023/01/24 05:43:35;;;;;;;3.80;2.55;;;;;;;;;;5054489;28;20029;-31
2023/01/24 05:46:03;;;;;;;3.35;2.88;;;;;;;;;;5054524;28;20052;-32
2023/01/24 05:48:29;;;;;;;12.77;4.50;;;;;;;;;;5054288;28;20061;-31
2023/01/24 05:50:59;;;;;;;3.42;2.83;;;;;;;;;;5054417;28;20017;-33
2023/01/24 05:53:26;;;;;;;4.03;2.85;;;;;;;;;;5054605;28;20091;-32
2023/01/24 05:55:59;;;;;;;7.35;3.20;;;;;;;;;;5054601;28;20120;-31
2023/01/24 05:58:26;;;;;;;5.45;2.75;;;;;;;;;;5054619;28;20024;-31
2023/01/24 06:00:52;;;;;;;5.55;3.00;;;;;;;;;;5054159;28;20037;-31
2023/01/24 06:03:19;;;;;;;6.55;3.67;;;;;;;;;;5054131;28;20053;-31
2023/01/24 06:05:46;;;;;;;5.45;2.60;;;;;;;;;;5054468;28;20025;-33
2023/01/24 06:08:12;;;;;;;10.10;3.47;;;;;;;;;;5054285;28;20032;-32
2023/01/24 06:10:38;;;;;;;7.50;2.60;;;;;;;;;;5054193;28;20029;-32
2023/01/24 06:13:04;;;;;;;8.98;2.78;;;;;;;;;;5054208;28;20415;-30
2023/01/24 06:15:31;;;;;;;6.05;3.45;;;;;;;;;;5054386;28;20031;-32
2023/01/24 06:17:57;;;;;;;3.80;2.85;;;;;;;;;;5054081;28;20017;-32
2023/01/24 06:20:23;;;;;;;8.50;3.97;;;;;;;;;;5054063;28;20028;-30
2023/01/24 06:22:52;;;;;;;8.65;4.07;;;;;;;;;;5053896;28;20363;-30
2023/01/24 06:25:20;;;;;;;9.85;3.10;;;;;;;;;;5054277;28;20096;-32
2023/01/24 06:27:47;;;;;;;6.93;2.83;;;;;;;;;;5054421;28;20033;-32
2023/01/24 06:30:14;;;;;;;9.52;3.63;;;;;;;;;;5054274;28;20035;-31
2023/01/24 06:32:46;;;;;;;16.65;3.97;;;;;;;;;;5054280;28;20466;-30
2023/01/24 06:35:12;;;;;;;13.32;3.05;;;;;;;;;;5054222;28;20029;-32
2023/01/24 06:37:44;;;;;;;18.60;5.10;;;;;;;;;;5054220;28;20056;-30
2023/01/24 06:40:12;;;;;;;23.33;4.28;;;;;;;;;;5054047;28;20082;-32
2023/01/24 06:42:38;;;;;;;12.50;3.67;;;;;;;;;;5055873;28;20032;-31
2023/01/24 06:45:05;;;;;;;13.68;3.78;;;;;;;;;;5058007;28;20036;-31
2023/01/24 06:47:32;;;;;;;7.10;3.42;;;;;;;;;;5058106;28;20033;-30
2023/01/24 06:49:58;;;;;;;9.88;3.50;;;;;;;;;;5057855;28;20110;-31
2023/01/24 06:52:24;;;;;;;9.73;3.35;;;;;;;;;;5057483;28;20451;-31
2023/01/24 06:54:50;;;;;;;15.65;4.25;;;;;;;;;;5057840;28;20108;-31
2023/01/24 06:57:16;;;;;;;8.98;3.40;;;;;;;;;;5057952;28;20104;-30
2023/01/24 06:59:42;;;;;;;16.60;3.50;;;;;;;;;;5058163;28;20036;-32
2023/01/24 07:02:12;;;;;;;9.27;3.28;;;;;;;;;;5057947;28;20040;-31
2023/01/24 07:04:38;;;;;;;7.13;4.63;;;;;;;;;;5058052;28;20040;-32
2023/01/24 07:07:07;;;;;;;6.93;3.58;;;;;;;;;;5057585;28;20020;-32
2023/01/24 07:09:34;;;;;;;4.68;3.00;;;;;;;;;;5057505;28;20525;-30
2023/01/24 07:12:00;;;;;;;8.50;3.10;;;;;;;;;;5057699;28;20027;-32
2023/01/24 07:14:26;;;;;;;4.63;3.30;;;;;;;;;;5057647;28;20025;-32
2023/01/24 07:16:55;;;;;;;8.50;2.97;;;;;;;;;;5057632;28;20056;-32
2023/01/24 07:19:23;;;;;;;7.25;2.92;;;;;;;;;;5057244;28;20104;-32
2023/01/24 07:21:52;;;;;;;14.88;3.72;;;;;;;;;;5057127;28;20025;-31
2023/01/24 07:24:20;;;;;;;14.43;4.32;;;;;;;;;;5057419;28;20070;-30
2023/01/24 07:26:48;;;;;;;7.18;3.63;;;;;;;;;;5057227;28;20043;-30
2023/01/24 07:29:14;;;;;;;16.13;4.15;;;;;;;;;;5039988;28;20048;-32
2023/01/24 07:31:40;;;;;;;10.82;3.58;;;;;;;;;;5056985;28;20032;-30
2023/01/24 07:34:06;;;;;;;9.52;3.70;;;;;;;;;;5056890;28;20033;-31
2023/01/24 07:36:33;;;;;;;13.68;3.90;;;;;;;;;;5056995;28;20021;-31
2023/01/24 07:38:59;;;;;;;8.38;3.70;;;;;;;;;;5057462;28;20100;-31
2023/01/24 07:41:25;;;;;;;15.82;4.22;;;;;;;;;;5056944;28;20024;-31
2023/01/24 07:43:51;;;;;;;23.67;5.10;;;;;;;;;;5057109;28;20037;-31
2023/01/24 07:46:17;;;;;;;22.80;4.70;;;;;;;;;;5056934;28;20021;-32
2023/01/24 07:48:43;;;;;;;17.45;3.65;;;;;;;;;;5056606;28;20085;-33
2023/01/24 07:51:10;;;;;;;13.23;4.72;;;;;;;;;;5056713;28;20028;-30
2023/01/24 07:53:36;;;;;;;15.05;4.47;;;;;;;;;;5056267;28;20079;-32
2023/01/24 07:56:03;;;;;;;29.02;3.95;;;;;;;;;;5056921;28;20025;-31
2023/01/24 07:58:30;;;;;;;23.45;4.20;;;;;;;;;;5038972;28;20053;-31
2023/01/24 08:00:56;;;;;;;19.73;5.53;;;;;;;;;;5056769;28;20025;-32
2023/01/24 08:03:22;;;;;;;18.10;4.82;;;;;;;;;;5056276;28;20132;-32
2023/01/24 08:05:48;;;;;;;29.52;6.35;;;;;;;;;;5057149;28;20029;-32
2023/01/24 08:08:14;;;;;;;15.50;4.88;;;;;;;;;;5056401;28;20021;-31
2023/01/24 08:10:40;;;;;;;29.00;5.00;;;;;;;;;;5038792;28;20025;-30
2023/01/24 08:13:06;;;;;;;39.50;5.95;;;;;;;;;;5056261;28;20090;-32
2023/01/24 08:15:32;;;;;;;44.90;6.05;;;;;;;;;;5039411;28;20056;-32
2023/01/24 08:18:01;;;;;;;42.15;5.68;;;;;;;;;;5056265;28;20017;-31
2023/01/24 08:20:29;;;;;;;25.42;6.55;;;;;;;;;;5056221;28;20455;-31
2023/01/24 08:22:58;;;;;;;27.63;4.50;;;;;;;;;;5056143;28;20353;-30
2023/01/24 08:25:25;;;;;;;30.27;4.90;;;;;;;;;;5056326;28;20056;-31
2023/01/24 08:27:51;;;;;;;14.10;4.60;;;;;;;;;;5056120;28;20036;-31
2023/01/24 08:30:18;;;;;;;20.63;4.65;;;;;;;;;;5056171;28;20079;-31
2023/01/24 08:32:44;;;;;;;60.08;7.45;;;;;;;;;;5055842;28;20028;-30
2023/01/24 08:35:10;;;;;;;29.90;6.03;;;;;;;;;;5055721;28;20107;-32
2023/01/24 08:37:36;;;;;;;9.25;3.80;;;;;;;;;;5038293;28;20144;-31
2023/01/24 08:40:03;;;;;;;12.05;3.53;;;;;;;;;;5056126;28;20116;-30
2023/01/24 08:42:29;;;;;;;29.13;4.82;;;;;;;;;;5055920;28;20055;-32
2023/01/24 08:44:55;;;;;;;25.10;4.68;;;;;;;;;;5055687;28;20047;-32
2023/01/24 08:47:21;;;;;;;28.75;5.03;;;;;;;;;;5055838;28;20017;-31
2023/01/24 08:49:48;;;;;;;13.40;4.45;;;;;;;;;;5056126;28;20074;-31
2023/01/24 08:52:14;;;;;;;62.33;7.93;;;;;;;;;;5055435;28;20085;-31
2023/01/24 08:54:40;;;;;;;50.20;6.75;;;;;;;;;;5055397;28;20033;-31
2023/01/24 08:57:07;;;;;;;53.08;7.07;;;;;;;;;;5055611;28;20059;-31
2023/01/24 08:59:33;;;;;;;66.82;8.20;;;;;;;;;;5055194;28;20036;-31
2023/01/24 09:01:59;;;;;;;39.67;5.55;;;;;;;;;;5055110;28;20056;-30
2023/01/24 09:04:28;;;;;;;66.03;7.22;;;;;;;;;;5054620;28;20045;-31
2023/01/24 09:06:54;;;;;;;91.63;8.68;;;;;;;;;;5055178;28;20036;-32
2023/01/24 09:09:21;;;;;;;31.73;6.05;;;;;;;;;;5055434;28;20068;-32
2023/01/24 09:11:47;;;;;;;50.53;8.55;;;;;;;;;;5055628;28;20020;-31
2023/01/24 09:14:13;;;;;;;48.45;6.90;;;;;;;;;;5055534;28;20033;-32
2023/01/24 09:16:39;;;;;;;57.28;6.50;;;;;;;;;;5054977;28;20025;-32
2023/01/24 09:19:06;;;;;;;67.20;8.50;;;;;;;;;;5055023;28;20096;-32
2023/01/24 09:21:33;;;;;;;81.20;9.27;;;;;;;;;;5054805;28;20452;-32
2023/01/24 09:23:59;;;;;;;50.80;6.45;;;;;;;;;;5054776;28;20029;-32
2023/01/24 09:26:26;;;;;;;55.53;7.95;;;;;;;;;;5055041;28;20029;-31
2023/01/24 09:28:52;;;;;;;46.35;7.13;;;;;;;;;;5055215;28;20412;-30
2023/01/24 09:31:18;;;;;;;64.72;11.10;;;;;;;;;;5054726;28;20025;-31
2023/01/24 09:33:44;;;;;;;219.38;32.70;;;;;;;;;;5054400;28;20039;-31
2023/01/24 09:36:11;;;;;;;59.17;8.48;;;;;;;;;;5054566;28;20021;-31
2023/01/24 09:38:37;;;;;;;36.50;6.13;;;;;;;;;;5054888;28;20028;-32
2023/01/24 09:41:32;;;;;;;40.08;7.43;;;;;;;;;;5054514;28;20459;-31
2023/01/24 09:44:10;;;;;;;33.08;5.95;;;;;;;;;;5037397;28;20033;-30
2023/01/24 09:46:42;;;;;;;17.10;5.88;;;;;;;;;;5054813;28;20451;-30
2023/01/24 09:49:27;;;;;;;25.48;4.72;;;;;;;;;;5054844;28;20048;-31
2023/01/24 09:51:54;;;;;;;22.85;5.15;;;;;;;;;;5036880;28;20028;-31
2023/01/24 09:54:38;;;;;;;33.97;6.20;;;;;;;;;;5054438;28;20033;-32
2023/01/24 09:57:11;;;;;;;30.70;5.32;;;;;;;;;;5054815;28;20025;-32
2023/01/24 09:59:43;;;;;;;20.27;5.05;;;;;;;;;;5054740;28;20024;-32
2023/01/24 10:02:28;;;;;;;32.20;6.22;;;;;;;;;;5054398;28;20406;-31
2023/01/24 10:04:54;;;;;;;24.92;4.97;;;;;;;;;;5054611;28;20107;-31
2023/01/24 10:07:21;;;;;;;34.25;5.20;;;;;;;;;;5054602;28;20398;-32
2023/01/24 10:10:04;;;;;;;19.58;4.78;;;;;;;;;;5054813;28;20033;-31
2023/01/24 10:12:30;;;;;;;20.85;3.72;;;;;;;;;;5054348;28;20036;-30
2023/01/24 10:15:02;;;;;;;22.40;5.18;;;;;;;;;;5054303;28;20040;-31
2023/01/24 10:17:43;;;;;;;18.23;5.32;;;;;;;;;;5055994;28;20467;-32
2023/01/24 10:20:30;;;;;;;26.13;6.63;;;;;;;;;;5058290;28;20035;-30
2023/01/24 10:23:25;;;;;;;30.63;6.72;;;;;;;;;;5058820;28;20033;-30
2023/01/24 10:25:53;;;;;;;27.45;4.50;;;;;;;;;;5041254;28;20364;-31
2023/01/24 10:28:29;;;;;;;23.27;5.38;;;;;;;;;;5058045;28;20090;-31
2023/01/24 10:30:58;;;;;;;41.53;5.60;;;;;;;;;;5058238;28;20356;-33
2023/01/24 10:33:26;;;;;;;38.28;7.47;;;;;;;;;;5057527;28;20450;-31
2023/01/24 10:35:57;;;;;;;38.92;7.22;;;;;;;;;;5057969;28;20409;-31
2023/01/24 10:38:24;;;;;;;35.42;6.15;;;;;;;;;;5057676;28;20103;-32
2023/01/24 10:40:51;;;;;;;24.67;4.85;;;;;;;;;;5057759;28;20029;-31
2023/01/24 10:43:18;;;;;;;28.60;5.90;;;;;;;;;;5058030;28;20352;-31
2023/01/24 10:46:02;;;;;;;33.97;7.63;;;;;;;;;;5058602;28;20047;-31
2023/01/24 10:48:32;;;;;;;59.80;7.82;;;;;;;;;;5057658;28;20021;-31
2023/01/24 10:51:10;;;;;;;25.40;5.32;;;;;;;;;;5058026;28;20368;-31
2023/01/24 10:53:36;;;;;;;40.97;6.57;;;;;;;;;;5058103;28;20377;-32
2023/01/24 10:56:04;;;;;;;27.00;6.38;;;;;;;;;;5057892;28;20029;-31
2023/01/24 10:58:50;;;;;;;30.70;5.00;;;;;;;;;;5057841;28;20036;-32
2023/01/24 11:01:21;;;;;;;40.03;6.25;;;;;;;;;;5044263;28;20025;-32
2023/01/24 11:03:47;;;;;;;;;;;;;;;;;;5057611;28;20379;-32
2023/01/24 11:06:43;;;;;;;41.42;5.40;;;;;;;;;;5057723;28;19904;-32
2023/01/24 11:09:10;;;;;;;18.35;5.78;;;;;;;;;;5040952;28;20421;-33
2023/01/24 11:11:41;;;;;;;32.85;5.20;;;;;;;;;;5057674;28;20328;-32
2023/01/24 11:14:12;;;;;;;31.75;5.10;;;;;;;;;;5057543;28;20422;-32
2023/01/24 11:16:46;;;;;;;29.00;4.97;;;;;;;;;;5057360;28;20360;-31
2023/01/24 11:19:50;;;;;;;21.65;7.50;;;;;;;;;;5057409;28;20515;-32
2023/01/24 11:22:21;;;;;;;37.63;6.78;;;;;;;;;;4977020;28;20037;-31
2023/01/24 11:24:47;;;;;;;24.50;5.27;;;;;;;;;;4977276;28;20030;-32
2023/01/24 11:27:16;;;;;;;31.48;5.55;;;;;;;;;;5017185;28;20033;-33
2023/01/24 11:29:42;;;;;;;21.65;6.90;;;;;;;;;;5057903;28;20063;-32
2023/01/24 11:32:27;;;;;;;15.10;4.60;;;;;;;;;;5057024;28;20029;-32
2023/01/24 11:35:05;;;;;;;22.63;5.68;;;;;;;;;;5057385;28;20025;-32
2023/01/24 11:37:50;;;;;;;18.10;5.68;;;;;;;;;;5057026;28;20039;-32
2023/01/24 11:40:22;;;;;;;15.13;5.07;;;;;;;;;;5057506;28;20463;-32
2023/01/24 11:42:59;;;;;;;20.88;5.20;;;;;;;;;;5057153;28;20041;-32
2023/01/24 11:45:25;;;;;;;23.50;5.57;;;;;;;;;;5057131;28;20024;-31
2023/01/24 11:47:51;;;;;;;23.65;5.68;;;;;;;;;;5057076;28;20416;-31
2023/01/24 11:50:29;;;;;;;17.45;5.22;;;;;;;;;;5056783;28;20337;-32
2023/01/24 11:53:05;;;;;;;14.45;4.47;;;;;;;;;;5056853;28;20041;-31
2023/01/24 11:55:36;;;;;;;21.23;5.15;;;;;;;;;;5056687;28;20017;-30
2023/01/24 11:58:14;;;;;;;21.00;4.45;;;;;;;;;;5056883;28;20036;-30
2023/01/24 12:00:50;;;;;;;18.33;5.50;;;;;;;;;;5056867;28;20107;-31
2023/01/24 12:03:37;;;;;;;23.63;6.32;;;;;;;;;;5056085;28;20128;-31
2023/01/24 12:06:03;;;;;;;17.98;5.18;;;;;;;;;;5056952;28;20028;-31
2023/01/24 12:08:50;;;;;;;23.73;8.40;;;;;;;;;;5056938;28;20067;-31
2023/01/24 12:11:34;;;;;;;14.43;4.85;;;;;;;;;;5056600;28;20033;-31
2023/01/24 12:14:24;;;;;;;20.45;5.05;;;;;;;;;;5056133;28;20029;-31
2023/01/24 12:16:51;;;;;;;16.60;5.75;;;;;;;;;;5056220;28;20025;-32
2023/01/24 12:19:26;;;;;;;14.30;4.72;;;;;;;;;;5056487;28;20044;-32
2023/01/24 12:21:57;;;;;;;22.67;4.90;;;;;;;;;;5056378;28;20110;-30
2023/01/24 12:24:34;;;;;;;17.42;5.57;;;;;;;;;;5056090;28;20056;-30
2023/01/24 12:27:07;;;;;;;18.42;5.60;;;;;;;;;;5055661;28;20087;-31
2023/01/24 12:29:51;;;;;;;25.58;6.70;;;;;;;;;;5038182;28;20029;-31
2023/01/24 12:32:23;;;;;;;16.15;4.57;;;;;;;;;;5056082;28;20040;-31
2023/01/24 12:34:54;;;;;;;17.63;4.88;;;;;;;;;;5055724;28;20029;-31
2023/01/24 12:37:39;;;;;;;19.15;4.80;;;;;;;;;;5056100;28;20371;-30
2023/01/24 12:40:16;;;;;;;14.77;4.28;;;;;;;;;;5054855;28;20037;-31
2023/01/24 12:42:49;;;;;;;20.30;6.18;;;;;;;;;;5056081;28;20025;-31
2023/01/24 12:45:19;;;;;;;18.92;5.60;;;;;;;;;;5056028;28;20067;-32
2023/01/24 12:47:48;;;;;;;13.18;5.00;;;;;;;;;;5055627;28;20029;-31
2023/01/24 12:50:20;;;;;;;19.50;5.38;;;;;;;;;;5055606;28;20100;-30
2023/01/24 12:53:02;;;;;;;20.15;6.03;;;;;;;;;;5055453;28;20098;-30
2023/01/24 12:55:31;;;;;;;16.88;5.05;;;;;;;;;;5056115;28;20021;-31
2023/01/24 12:58:02;;;;;;;18.60;5.35;;;;;;;;;;5055774;28;20024;-32
2023/01/24 13:00:39;;;;;;;23.40;5.50;;;;;;;;;;5037875;28;20067;-32
2023/01/24 13:03:23;;;;;;;13.57;5.20;;;;;;;;;;5055435;28;20045;-32
2023/01/24 13:05:55;;;;;;;15.98;4.88;;;;;;;;;;5055632;28;20028;-32
2023/01/24 13:08:49;;;;;;;16.88;4.80;;;;;;;;;;5055544;28;20183;-31
2023/01/24 13:11:15;;;;;;;20.95;6.80;;;;;;;;;;5052301;28;20054;-32
2023/01/24 13:13:44;;;;;;;24.17;4.85;;;;;;;;;;5054998;28;20108;-33
2023/01/24 13:16:29;;;;;;;18.83;5.72;;;;;;;;;;5055036;28;20027;-30
2023/01/24 13:18:58;;;;;;;15.68;4.63;;;;;;;;;;5055035;28;20072;-30
2023/01/24 13:21:30;;;;;;;19.35;5.40;;;;;;;;;;5054955;28;20096;-30
2023/01/24 13:23:56;;;;;;;14.60;4.88;;;;;;;;;;5055413;28;20031;-31
2023/01/24 13:26:41;;;;;;;11.80;5.15;;;;;;;;;;5055098;28;20083;-30
2023/01/24 13:29:14;;;;;;;26.05;6.38;;;;;;;;;;5054998;28;20052;-31
2023/01/24 13:31:58;;;;;;;20.80;5.00;;;;;;;;;;5055130;28;20032;-29
2023/01/24 13:34:29;;;;;;;17.70;5.40;;;;;;;;;;5055147;28;20051;-31
2023/01/24 13:36:55;;;;;;;22.53;5.60;;;;;;;;;;5037224;28;20448;-32
2023/01/24 13:39:39;;;;;;;26.92;6.50;;;;;;;;;;5054965;28;20047;-32
2023/01/24 13:42:26;;;;;;;16.65;5.25;;;;;;;;;;5054854;28;20025;-30
2023/01/24 13:44:52;;;;;;;42.78;6.68;;;;;;;;;;5041256;28;20049;-31
2023/01/24 13:47:18;;;;;;;42.13;7.05;;;;;;;;;;5054585;28;20071;-31
2023/01/24 13:49:50;;;;;;;28.67;5.43;;;;;;;;;;5055108;28;20044;-31
2023/01/24 13:52:31;;;;;;;53.47;8.00;;;;;;;;;;5054297;28;20070;-31
2023/01/24 13:54:58;;;;;;;25.55;5.95;;;;;;;;;;5054480;28;20475;-31
2023/01/24 13:57:24;;;;;;;25.02;6.85;;;;;;;;;;5054394;28;20024;-31
2023/01/24 14:00:08;;;;;;;16.70;5.55;;;;;;;;;;5054549;28;20094;-32
2023/01/24 14:02:41;;;;;;;41.10;6.25;;;;;;;;;;5054224;28;20428;-31
2023/01/24 14:05:30;;;;;;;40.72;7.97;;;;;;;;;;5054540;28;20167;-30
2023/01/24 14:07:58;;;;;;;22.00;5.65;;;;;;;;;;5044054;28;20399;-32
2023/01/24 14:10:53;;;;;;;27.80;6.78;;;;;;;;;;5054271;28;20057;-31
2023/01/24 14:13:38;;;;;;;21.98;6.55;;;;;;;;;;5037190;28;20041;-31
2023/01/24 14:16:04;;;;;;;19.73;6.22;;;;;;;;;;5054227;28;20021;-32
2023/01/24 14:18:39;;;;;;;28.92;6.85;;;;;;;;;;5054173;28;20336;-32
2023/01/24 14:21:13;;;;;;;13.75;5.88;;;;;;;;;;5054360;28;20017;-31
2023/01/24 14:23:40;;;;;;;16.63;5.07;;;;;;;;;;5054172;28;20036;-32
2023/01/24 14:26:06;;;;;;;18.10;5.97;;;;;;;;;;5054338;28;20043;-33
2023/01/24 14:28:39;;;;;;;21.63;5.60;;;;;;;;;;5054481;28;20087;-30
2023/01/24 14:31:21;;;;;;;20.73;5.03;;;;;;;;;;5054690;28;20090;-30
2023/01/24 14:33:53;;;;;;;15.90;5.35;;;;;;;;;;5053935;28;20095;-31
2023/01/24 14:36:28;;;;;;;14.75;5.20;;;;;;;;;;5054240;28;20029;-32
2023/01/24 14:39:13;;;;;;;12.43;6.13;;;;;;;;;;5054054;28;20352;-33
2023/01/24 14:41:40;;;;;;;22.05;5.78;;;;;;;;;;5054633;28;20029;-31
2023/01/24 14:44:25;;;;;;;15.40;5.28;;;;;;;;;;5053992;28;20128;-32
2023/01/24 14:46:55;;;;;;;19.30;5.18;;;;;;;;;;5054081;28;20031;-31
2023/01/24 14:49:27;;;;;;;9.70;5.30;;;;;;;;;;5053693;28;20075;-31
2023/01/24 14:51:54;;;;;;;10.88;4.72;;;;;;;;;;5053880;28;20360;-32
2023/01/24 14:54:21;;;;;;;21.63;5.68;;;;;;;;;;5053503;28;20032;-32
2023/01/24 14:56:47;;;;;;;18.63;5.22;;;;;;;;;;5054290;28;20360;-31
2023/01/24 14:59:14;;;;;;;12.98;4.55;;;;;;;;;;5053937;28;20029;-31
2023/01/24 15:01:41;;;;;;;11.98;5.45;;;;;;;;;;5053959;28;20051;-31
2023/01/24 15:04:20;;;;;;;18.35;4.88;;;;;;;;;;5056233;28;20121;-32
2023/01/24 15:06:46;;;;;;;17.15;4.90;;;;;;;;;;5057723;28;20025;-32
2023/01/24 15:09:16;;;;;;;16.65;5.10;;;;;;;;;;5058132;28;20060;-33
2023/01/24 15:11:43;;;;;;;;;;;;;;;;;;5057864;28;20056;-32
2023/01/24 15:14:18;;;;;;;13.02;4.55;;;;;;;;;;5057760;28;19912;-30
2023/01/24 15:16:49;;;;;;;17.67;5.22;;;;;;;;;;5057411;28;20096;-31
2023/01/24 15:19:19;;;;;;;34.00;6.85;;;;;;;;;;5039574;28;20368;-31
2023/01/24 15:21:46;;;;;;;20.23;5.63;;;;;;;;;;5057346;28;20060;-31
2023/01/24 15:24:18;;;;;;;23.02;5.25;;;;;;;;;;5057004;28;20063;-30
2023/01/24 15:26:46;;;;;;;19.90;4.68;;;;;;;;;;5057443;28;20072;-30